createdAt,value
2023-05-10T00:01:59.925Z,76.75
2023-05-10T00:04:28.447Z,77.15
2023-05-10T00:06:55.821Z,76.75
2023-05-10T00:09:22.330Z,76.86
2023-05-10T00:11:48.797Z,77.09
2023-05-10T00:14:15.457Z,76.94
2023-05-10T00:16:42.007Z,76.95
2023-05-10T00:19:08.583Z,77.25
2023-05-10T00:21:35.038Z,77.04
2023-05-10T00:24:01.474Z,77.18
2023-05-10T00:26:27.910Z,76.90
2023-05-10T00:28:54.311Z,77.51
2023-05-10T00:31:20.833Z,77.03
2023-05-10T00:33:47.289Z,76.62
2023-05-10T00:36:13.720Z,76.57
2023-05-10T00:38:40.195Z,76.64
2023-05-10T00:41:06.675Z,76.42
2023-05-10T00:43:33.170Z,76.61
2023-05-10T00:45:59.598Z,76.81
2023-05-10T00:48:26.171Z,76.58
2023-05-10T00:50:52.804Z,76.11
2023-05-10T00:53:20.018Z,76.81
2023-05-10T00:55:46.585Z,76.73
2023-05-10T00:58:13.284Z,76.86
2023-05-10T01:00:43.271Z,76.61
2023-05-10T01:03:10.588Z,76.34
2023-05-10T01:05:37.038Z,76.73
2023-05-10T01:08:03.760Z,76.46
2023-05-10T01:10:30.702Z,76.48
2023-05-10T01:12:57.907Z,76.57
2023-05-10T01:15:24.792Z,76.52
2023-05-10T01:17:52.682Z,76.55
2023-05-10T01:20:19.475Z,76.25
2023-05-10T01:22:46.245Z,76.30
2023-05-10T01:25:23.303Z,75.65
2023-05-10T01:28:17.015Z,76.07
2023-05-10T01:31:08.387Z,76.15
2023-05-10T01:33:57.215Z,76.17
2023-05-10T01:36:52.177Z,76.43
2023-05-10T01:39:26.977Z,76.13
2023-05-10T01:42:05.180Z,75.78
2023-05-10T01:44:46.546Z,75.67
2023-05-10T01:47:18.158Z,75.74
2023-05-10T01:49:51.280Z,75.41
2023-05-10T01:52:20.783Z,75.25
2023-05-10T01:54:56.837Z,75.14
2023-05-10T01:57:28.789Z,75.21
2023-05-10T01:59:56.152Z,75.38
2023-05-10T02:02:23.846Z,75.16
2023-05-10T02:04:53.509Z,75.24
2023-05-10T02:07:21.078Z,75.22
2023-05-10T02:09:48.970Z,75.49
2023-05-10T02:12:17.011Z,75.35
2023-05-10T02:14:45.133Z,75.18
2023-05-10T02:17:13.022Z,75.18
2023-05-10T02:19:41.727Z,74.96
2023-05-10T02:22:09.902Z,75.17
2023-05-10T02:24:39.610Z,75.06
2023-05-10T02:27:07.818Z,75.20
2023-05-10T02:29:35.218Z,75.06
2023-05-10T02:32:03.390Z,75.27
2023-05-10T02:34:30.929Z,75.19
2023-05-10T02:36:57.839Z,75.37
2023-05-10T02:39:26.170Z,75.06
2023-05-10T02:41:53.980Z,75.22
2023-05-10T02:44:21.490Z,75.31
2023-05-10T02:46:48.118Z,75.34
2023-05-10T02:49:15.203Z,74.92
2023-05-10T02:51:48.552Z,74.86
2023-05-10T02:54:25.422Z,74.95
2023-05-10T02:56:57.570Z,75.19
2023-05-10T02:59:24.392Z,74.20
2023-05-10T03:01:51.165Z,74.97
2023-05-10T03:04:17.763Z,75.31
2023-05-10T03:06:44.840Z,75.20
2023-05-10T03:09:13.532Z,75.32
2023-05-10T03:12:13.910Z,75.72
2023-05-10T03:14:53.935Z,75.52
2023-05-10T03:17:26.534Z,75.96
2023-05-10T03:19:58.808Z,76.27
2023-05-10T03:22:35.295Z,76.12
2023-05-10T03:25:07.047Z,75.69
2023-05-10T03:27:35.086Z,76.31
2023-05-10T03:30:03.903Z,76.13
2023-05-10T03:32:33.113Z,76.21
2023-05-10T03:34:59.533Z,76.33
2023-05-10T03:37:25.892Z,76.41
2023-05-10T03:39:52.358Z,76.15
2023-05-10T03:42:19.416Z,76.17
2023-05-10T03:44:45.964Z,76.57
2023-05-10T03:47:12.437Z,76.29
2023-05-10T03:49:38.926Z,76.07
2023-05-10T03:52:06.308Z,76.09
2023-05-10T03:54:33.264Z,76.09
2023-05-10T03:56:59.762Z,76.22
2023-05-10T03:59:26.151Z,76.28
2023-05-10T04:01:52.901Z,76.22
2023-05-10T04:04:19.763Z,76.17
2023-05-10T04:06:46.463Z,76.26
2023-05-10T04:09:13.058Z,76.31
2023-05-10T04:11:39.527Z,76.18
2023-05-10T04:14:06.058Z,76.20
2023-05-10T04:16:32.618Z,75.73
2023-05-10T04:18:59.102Z,75.25
2023-05-10T04:21:25.718Z,75.25
2023-05-10T04:23:52.148Z,75.42
2023-05-10T04:26:18.556Z,75.64
2023-05-10T04:28:44.969Z,75.37
2023-05-10T04:31:11.484Z,75.52
2023-05-10T04:33:38.106Z,75.52
2023-05-10T04:36:05.009Z,75.63
2023-05-10T04:38:31.522Z,75.52
2023-05-10T04:41:08.615Z,75.51
2023-05-10T04:43:35.952Z,75.18
2023-05-10T04:46:02.550Z,75.38
2023-05-10T04:48:29.097Z,75.79
2023-05-10T04:50:55.830Z,75.70
2023-05-10T04:53:22.286Z,75.72
2023-05-10T04:55:49.028Z,75.85
2023-05-10T04:58:15.856Z,76.12
2023-05-10T05:00:42.712Z,75.80
2023-05-10T05:03:09.403Z,75.94
2023-05-10T05:05:35.898Z,76.03
2023-05-10T05:08:02.329Z,75.91
2023-05-10T05:10:28.989Z,75.77
2023-05-10T05:12:55.513Z,75.82
2023-05-10T05:15:22.007Z,75.47
2023-05-10T05:17:48.498Z,75.32
2023-05-10T05:20:15.892Z,75.08
2023-05-10T05:22:42.420Z,75.27
2023-05-10T05:25:09.193Z,75.26
2023-05-10T05:27:35.598Z,74.85
2023-05-10T05:30:02.091Z,74.90
2023-05-10T05:32:28.711Z,75.21
2023-05-10T05:34:55.189Z,74.84
2023-05-10T05:37:22.928Z,75.67
2023-05-10T05:39:49.571Z,75.64
2023-05-10T05:42:17.457Z,75.74
2023-05-10T05:44:43.966Z,75.47
2023-05-10T05:47:10.674Z,75.65
2023-05-10T05:49:37.336Z,75.67
2023-05-10T05:52:05.082Z,75.96
2023-05-10T05:54:32.423Z,75.87
2023-05-10T05:57:01.195Z,75.69
2023-05-10T05:59:28.532Z,75.88
2023-05-10T06:01:55.153Z,75.85
2023-05-10T06:04:21.699Z,75.97
2023-05-10T06:06:48.241Z,75.78
2023-05-10T06:09:14.703Z,76.20
2023-05-10T06:11:41.504Z,75.30
2023-05-10T06:14:08.845Z,75.20
2023-05-10T06:16:35.648Z,75.10
2023-05-10T06:19:02.339Z,75.12
2023-05-10T06:21:28.817Z,75.05
2023-05-10T06:23:55.635Z,74.80
2023-05-10T06:26:22.182Z,74.69
2023-05-10T06:28:48.980Z,74.28
2023-05-10T06:31:15.470Z,73.76
2023-05-10T06:33:41.982Z,73.68
2023-05-10T06:36:08.429Z,73.34
2023-05-10T06:38:34.886Z,72.54
2023-05-10T06:41:01.739Z,73.20
2023-05-10T06:43:29.550Z,72.67
2023-05-10T06:45:56.031Z,72.15
2023-05-10T06:48:22.681Z,71.54
2023-05-10T06:50:49.405Z,71.12
2023-05-10T06:53:16.353Z,71.29
2023-05-10T06:55:42.790Z,71.73
2023-05-10T06:58:09.194Z,71.46
2023-05-10T07:00:35.847Z,71.89
2023-05-10T07:03:02.424Z,71.93
2023-05-10T07:05:29.242Z,71.74
2023-05-10T07:07:55.673Z,71.63
2023-05-10T07:10:22.231Z,71.66
2023-05-10T07:12:48.776Z,70.53
2023-05-10T07:15:15.469Z,71.27
2023-05-10T07:17:44.844Z,70.01
2023-05-10T07:20:12.867Z,70.89
2023-05-10T07:22:39.454Z,70.99
2023-05-10T07:25:06.418Z,70.91
2023-05-10T07:27:33.560Z,70.39
2023-05-10T07:30:00.105Z,70.58
2023-05-10T07:32:26.836Z,70.96
2023-05-10T07:34:53.342Z,70.49
2023-05-10T07:37:19.881Z,71.03
2023-05-10T07:39:46.392Z,70.63
2023-05-10T07:42:12.795Z,71.10
2023-05-10T07:44:39.241Z,70.06
2023-05-10T07:47:05.673Z,70.27
2023-05-10T07:49:32.487Z,69.79
2023-05-10T07:51:59.000Z,69.83
2023-05-10T07:54:25.746Z,68.72
2023-05-10T07:56:52.211Z,68.74
2023-05-10T07:59:18.903Z,69.41
2023-05-10T08:01:46.186Z,69.54
2023-05-10T08:04:12.896Z,68.42
2023-05-10T08:06:40.677Z,67.29
2023-05-10T08:09:07.352Z,67.33
2023-05-10T08:11:35.012Z,67.44
2023-05-10T08:14:01.756Z,67.38
2023-05-10T08:16:28.564Z,66.33
2023-05-10T08:18:56.574Z,65.93
2023-05-10T08:21:23.155Z,66.49
2023-05-10T08:23:50.116Z,65.53
2023-05-10T08:26:16.607Z,65.97
2023-05-10T08:28:43.159Z,63.98
2023-05-10T08:31:09.700Z,64.32
2023-05-10T08:33:36.243Z,63.25
2023-05-10T08:36:02.693Z,62.79
2023-05-10T08:38:29.187Z,62.15
2023-05-10T08:40:59.552Z,61.68
2023-05-10T08:43:29.616Z,62.64
2023-05-10T08:45:57.720Z,62.26
2023-05-10T08:48:25.986Z,60.68
2023-05-10T08:50:56.113Z,59.98
2023-05-10T08:53:27.674Z,59.26
2023-05-10T08:55:54.383Z,57.92
2023-05-10T08:58:21.314Z,58.91
2023-05-10T09:00:49.687Z,58.78
2023-05-10T09:03:16.646Z,61.67
2023-05-10T09:05:43.534Z,60.69
2023-05-10T09:08:10.580Z,62.39
2023-05-10T09:10:38.705Z,60.07
2023-05-10T09:13:05.668Z,57.04
2023-05-10T09:15:32.337Z,58.56
2023-05-10T09:18:00.424Z,58.81
2023-05-10T09:20:26.971Z,58.26
2023-05-10T09:22:53.382Z,58.03
2023-05-10T09:25:20.628Z,54.62
2023-05-10T09:27:47.991Z,53.97
2023-05-10T09:30:26.265Z,55.28
2023-05-10T09:32:53.749Z,56.04
2023-05-10T09:35:22.751Z,55.75
2023-05-10T09:37:52.050Z,52.52
2023-05-10T09:40:20.498Z,51.33
2023-05-10T09:42:55.313Z,52.52
2023-05-10T09:45:23.007Z,51.98
2023-05-10T09:47:49.611Z,49.12
2023-05-10T09:50:16.080Z,50.41
2023-05-10T09:52:48.696Z,49.89
2023-05-10T09:55:16.663Z,50.69
2023-05-10T09:57:43.414Z,50.69
2023-05-10T10:00:14.097Z,52.56
2023-05-10T10:02:41.347Z,51.65
2023-05-10T10:05:08.012Z,50.95
2023-05-10T10:07:35.359Z,51.70
2023-05-10T10:10:01.753Z,52.47
2023-05-10T10:12:28.595Z,53.33
2023-05-10T10:14:56.228Z,55.00
2023-05-10T10:17:23.099Z,54.51
2023-05-10T10:19:50.075Z,55.36
2023-05-10T10:22:17.901Z,55.67
2023-05-10T10:24:44.387Z,54.85
2023-05-10T10:27:37.828Z,55.98
2023-05-10T10:30:30.686Z,53.79
2023-05-10T10:33:35.094Z,53.20
2023-05-10T10:36:03.598Z,52.63
2023-05-10T10:39:00.302Z,51.46
2023-05-10T10:41:36.867Z,50.35
2023-05-10T10:44:31.657Z,49.26
2023-05-10T10:47:29.959Z,47.47
2023-05-10T10:49:59.478Z,48.52
2023-05-10T10:52:41.865Z,51.17
2023-05-10T10:55:10.417Z,51.79
2023-05-10T10:57:52.686Z,54.15
2023-05-10T11:00:32.365Z,51.35
2023-05-10T11:03:09.773Z,53.79
2023-05-10T11:05:49.067Z,52.06
2023-05-10T11:08:17.422Z,54.34
2023-05-10T11:11:03.104Z,54.56
2023-05-10T11:13:30.657Z,53.54
2023-05-10T11:16:00.142Z,55.39
2023-05-10T11:18:29.569Z,53.45
2023-05-10T11:21:03.665Z,53.30
2023-05-10T11:23:48.542Z,53.43
2023-05-10T11:26:15.448Z,52.99
2023-05-10T11:28:49.275Z,51.38
2023-05-10T11:31:17.468Z,53.75
2023-05-10T11:33:48.745Z,55.35
2023-05-10T11:36:17.497Z,57.76
2023-05-10T11:38:44.571Z,57.09
2023-05-10T11:41:12.504Z,58.26
2023-05-10T11:43:42.557Z,60.96
2023-05-10T11:46:12.189Z,61.29
2023-05-10T11:48:42.070Z,59.39
2023-05-10T11:51:09.773Z,60.71
2023-05-10T11:53:36.563Z,61.32
2023-05-10T11:56:10.567Z,60.83
2023-05-10T11:58:38.922Z,59.45
2023-05-10T12:01:06.672Z,58.91
2023-05-10T12:03:33.908Z,58.08
2023-05-10T12:06:01.657Z,55.74
2023-05-10T12:08:29.007Z,56.88
2023-05-10T12:11:06.193Z,54.54
2023-05-10T12:13:32.725Z,53.15
2023-05-10T12:15:59.902Z,53.95
2023-05-10T12:18:26.457Z,53.66
2023-05-10T12:20:54.820Z,52.92
2023-05-10T12:23:22.057Z,52.32
2023-05-10T12:25:48.768Z,53.99
2023-05-10T12:28:15.120Z,53.92
2023-05-10T12:30:41.578Z,52.66
2023-05-10T12:33:10.805Z,52.89
2023-05-10T12:35:47.940Z,54.22
2023-05-10T12:38:30.398Z,54.87
2023-05-10T12:41:05.138Z,54.51
2023-05-10T12:43:32.593Z,55.79
2023-05-10T12:45:59.346Z,54.33
2023-05-10T12:48:26.023Z,53.12
2023-05-10T12:50:52.588Z,52.66
2023-05-10T12:53:19.037Z,49.01
2023-05-10T12:55:46.784Z,49.39
2023-05-10T12:58:17.929Z,49.39
2023-05-10T13:00:44.914Z,49.79
2023-05-10T13:03:11.559Z,48.14
2023-05-10T13:05:38.197Z,47.51
2023-05-10T13:08:04.731Z,46.73
2023-05-10T13:10:32.469Z,48.57
2023-05-10T13:12:59.685Z,46.69
2023-05-10T13:15:26.275Z,47.54
2023-05-10T13:17:54.066Z,48.46
2023-05-10T13:20:20.807Z,48.76
2023-05-10T13:22:47.333Z,48.36
2023-05-10T13:25:14.198Z,48.47
2023-05-10T13:27:41.422Z,46.57
2023-05-10T13:30:08.739Z,45.57
2023-05-10T13:32:35.474Z,45.48
2023-05-10T13:35:04.084Z,45.91
2023-05-10T13:37:31.588Z,44.58
2023-05-10T13:39:58.031Z,46.95
2023-05-10T13:42:24.592Z,47.27
2023-05-10T13:44:51.737Z,47.42
2023-05-10T13:47:18.126Z,46.78
2023-05-10T13:49:44.893Z,47.55
2023-05-10T13:52:11.509Z,47.21
2023-05-10T13:54:38.964Z,47.00
2023-05-10T13:57:05.978Z,46.91
2023-05-10T13:59:32.942Z,47.30
2023-05-10T14:02:05.451Z,46.95
2023-05-10T14:04:32.508Z,47.16
2023-05-10T14:06:58.980Z,46.65
2023-05-10T14:09:25.394Z,46.65
2023-05-10T14:11:52.103Z,45.54
2023-05-10T14:14:18.478Z,46.37
2023-05-10T14:16:46.029Z,47.07
2023-05-10T14:19:13.087Z,46.59
2023-05-10T14:21:39.604Z,46.92
2023-05-10T14:24:07.769Z,45.20
2023-05-10T14:26:35.440Z,44.47
2023-05-10T14:29:01.972Z,45.43
2023-05-10T14:31:28.529Z,45.77
2023-05-10T14:33:54.993Z,45.58
2023-05-10T14:36:21.408Z,45.95
2023-05-10T14:38:47.832Z,47.03
2023-05-10T14:41:16.043Z,46.02
2023-05-10T14:43:42.480Z,45.44
2023-05-10T14:46:09.703Z,45.84
2023-05-10T14:48:36.282Z,46.67
2023-05-10T14:51:03.168Z,45.82
2023-05-10T14:53:29.729Z,46.02
2023-05-10T14:55:56.280Z,45.95
2023-05-10T14:58:22.694Z,46.81
2023-05-10T15:00:49.800Z,46.57
2023-05-10T15:03:16.975Z,45.48
2023-05-10T15:05:43.870Z,46.63
2023-05-10T15:08:10.439Z,46.19
2023-05-10T15:10:37.799Z,46.87
2023-05-10T15:13:05.101Z,47.34
2023-05-10T15:15:31.939Z,46.94
2023-05-10T15:17:58.610Z,43.01
2023-05-10T15:20:25.144Z,45.01
2023-05-10T15:22:51.821Z,46.66
2023-05-10T15:25:18.473Z,45.12
2023-05-10T15:27:45.057Z,44.03
2023-05-10T15:30:11.901Z,44.80
2023-05-10T15:32:40.299Z,44.90
2023-05-10T15:35:08.926Z,43.81
2023-05-10T15:37:35.498Z,43.18
2023-05-10T15:40:04.915Z,42.63
2023-05-10T15:42:33.060Z,42.52
2023-05-10T15:45:00.156Z,43.03
2023-05-10T15:47:26.993Z,44.23
2023-05-10T15:49:53.631Z,44.06
2023-05-10T15:52:21.627Z,44.16
2023-05-10T15:54:48.307Z,43.79
2023-05-10T15:57:14.758Z,45.11
2023-05-10T15:59:41.591Z,45.06
2023-05-10T16:02:09.062Z,44.18
2023-05-10T16:04:35.533Z,45.14
2023-05-10T16:07:02.153Z,45.80
2023-05-10T16:09:28.630Z,44.38
2023-05-10T16:11:55.194Z,45.82
2023-05-10T16:14:22.911Z,46.43
2023-05-10T16:16:49.623Z,47.43
2023-05-10T16:19:16.188Z,48.49
2023-05-10T16:21:42.762Z,49.04
2023-05-10T16:24:09.235Z,48.73
2023-05-10T16:26:40.835Z,49.74
2023-05-10T16:29:08.410Z,51.30
2023-05-10T16:31:35.050Z,52.50
2023-05-10T16:34:01.869Z,52.46
2023-05-10T16:36:29.497Z,52.25
2023-05-10T16:38:56.187Z,51.94
2023-05-10T16:41:22.753Z,52.46
2023-05-10T16:43:49.282Z,51.96
2023-05-10T16:46:16.149Z,51.75
2023-05-10T16:48:42.800Z,51.94
2023-05-10T16:51:09.453Z,52.22
2023-05-10T16:53:36.378Z,52.21
2023-05-10T16:56:06.132Z,50.93
2023-05-10T16:58:33.262Z,51.95
2023-05-10T17:01:00.130Z,51.48
2023-05-10T17:03:26.744Z,51.60
2023-05-10T17:05:53.206Z,52.41
2023-05-10T17:08:19.660Z,53.30
2023-05-10T17:10:46.080Z,53.50
2023-05-10T17:13:12.515Z,53.87
2023-05-10T17:15:39.340Z,52.91
2023-05-10T17:18:07.038Z,53.88
2023-05-10T17:20:34.205Z,54.31
2023-05-10T17:23:02.678Z,54.64
2023-05-10T17:25:29.633Z,55.12
2023-05-10T17:27:56.299Z,55.12
2023-05-10T17:30:26.389Z,55.93
2023-05-10T17:32:54.146Z,55.87
2023-05-10T17:35:21.221Z,57.31
2023-05-10T17:37:47.629Z,58.13
2023-05-10T17:40:14.135Z,57.95
2023-05-10T17:42:40.868Z,57.86
2023-05-10T17:45:07.938Z,56.98
2023-05-10T17:47:34.692Z,56.89
2023-05-10T17:50:01.300Z,56.44
2023-05-10T17:52:30.858Z,56.91
2023-05-10T17:54:58.552Z,57.36
2023-05-10T17:57:25.050Z,57.23
2023-05-10T17:59:51.448Z,56.78
2023-05-10T18:02:17.859Z,56.54
2023-05-10T18:04:44.661Z,56.58
2023-05-10T18:07:11.244Z,57.62
2023-05-10T18:09:37.647Z,57.18
2023-05-10T18:12:04.590Z,56.78
2023-05-10T18:14:40.714Z,57.21
2023-05-10T18:17:08.658Z,57.59
2023-05-10T18:19:35.390Z,57.21
2023-05-10T18:22:01.888Z,57.65
2023-05-10T18:24:38.458Z,56.89
2023-05-10T18:27:09.193Z,56.73
2023-05-10T18:29:36.596Z,57.41
2023-05-10T18:32:03.308Z,58.09
2023-05-10T18:34:29.962Z,58.63
2023-05-10T18:36:56.707Z,59.17
2023-05-10T18:39:24.211Z,58.93
2023-05-10T18:41:50.637Z,59.25
2023-05-10T18:44:17.418Z,59.32
2023-05-10T18:46:43.990Z,59.33
2023-05-10T18:49:10.525Z,59.32
2023-05-10T18:51:37.067Z,59.31
2023-05-10T18:54:03.557Z,59.83
2023-05-10T18:56:30.047Z,59.74
2023-05-10T18:58:56.595Z,58.36
2023-05-10T19:01:23.011Z,59.56
2023-05-10T19:03:49.410Z,59.47
2023-05-10T19:06:15.869Z,59.56
2023-05-10T19:08:42.497Z,59.59
2023-05-10T19:11:09.076Z,59.47
2023-05-10T19:13:35.553Z,58.79
2023-05-10T19:16:04.693Z,59.27
2023-05-10T19:18:32.156Z,59.34
2023-05-10T19:20:58.899Z,59.23
2023-05-10T19:23:26.670Z,59.61
2023-05-10T19:25:53.123Z,59.59
2023-05-10T19:28:19.662Z,59.73
2023-05-10T19:30:46.135Z,60.37
2023-05-10T19:33:12.625Z,59.47
2023-05-10T19:35:39.486Z,59.20
2023-05-10T19:38:06.357Z,59.05
2023-05-10T19:40:33.025Z,59.31
2023-05-10T19:43:00.446Z,58.99
2023-05-10T19:45:27.011Z,59.03
2023-05-10T19:47:53.759Z,59.20
2023-05-10T19:50:20.306Z,59.43
2023-05-10T19:52:47.085Z,59.15
2023-05-10T19:55:15.306Z,60.00
2023-05-10T19:57:41.782Z,59.79
2023-05-10T20:00:08.830Z,60.19
2023-05-10T20:02:35.691Z,60.33
2023-05-10T20:05:02.165Z,60.17
2023-05-10T20:07:28.824Z,60.49
2023-05-10T20:09:55.295Z,60.75
2023-05-10T20:12:22.033Z,61.26
2023-05-10T20:14:48.496Z,61.14
2023-05-10T20:17:14.881Z,61.25
2023-05-10T20:19:41.581Z,61.41
2023-05-10T20:22:09.326Z,61.35
2023-05-10T20:24:36.209Z,62.02
2023-05-10T20:27:04.466Z,62.37
2023-05-10T20:29:32.422Z,62.30
2023-05-10T20:31:59.253Z,62.45
2023-05-10T20:34:26.015Z,62.52
2023-05-10T20:36:52.425Z,62.80
2023-05-10T20:39:18.840Z,62.92
2023-05-10T20:41:45.549Z,62.88
2023-05-10T20:44:12.016Z,62.88
2023-05-10T20:46:38.877Z,62.66
2023-05-10T20:49:05.585Z,62.40
2023-05-10T20:51:33.380Z,62.73
2023-05-10T20:54:01.831Z,61.93
2023-05-10T20:56:28.252Z,62.22
2023-05-10T20:58:54.642Z,62.48
2023-05-10T21:01:21.143Z,62.20
2023-05-10T21:03:47.594Z,61.56
2023-05-10T21:06:14.127Z,61.28
2023-05-10T21:08:40.557Z,61.67
2023-05-10T21:11:07.064Z,61.36
2023-05-10T21:13:33.606Z,61.63
2023-05-10T21:16:00.421Z,61.77
2023-05-10T21:18:26.896Z,61.74
2023-05-10T21:20:53.393Z,61.10
2023-05-10T21:23:19.844Z,61.19
2023-05-10T21:25:46.302Z,61.56
2023-05-10T21:28:12.680Z,61.17
2023-05-10T21:30:39.289Z,61.68
2023-05-10T21:33:05.688Z,61.75
2023-05-10T21:35:32.174Z,62.08
2023-05-10T21:37:58.668Z,61.98
2023-05-10T21:40:25.128Z,61.91
2023-05-10T21:42:52.483Z,62.16
2023-05-10T21:45:20.024Z,62.27
2023-05-10T21:47:46.753Z,61.69
2023-05-10T21:50:13.477Z,62.34
2023-05-10T21:52:40.184Z,62.36
2023-05-10T21:55:08.422Z,62.49
2023-05-10T21:57:34.970Z,62.73
2023-05-10T22:00:01.391Z,62.40
2023-05-10T22:02:29.282Z,62.42
2023-05-10T22:04:56.285Z,62.81
2023-05-10T22:07:22.759Z,62.33
2023-05-10T22:09:49.383Z,62.87
2023-05-10T22:12:15.822Z,62.80
2023-05-10T22:14:42.260Z,63.07
2023-05-10T22:17:08.813Z,63.37
2023-05-10T22:19:35.406Z,63.24
2023-05-10T22:22:01.877Z,62.89
2023-05-10T22:24:28.467Z,63.00
2023-05-10T22:26:56.013Z,63.16
2023-05-10T22:29:22.820Z,64.01
2023-05-10T22:31:49.336Z,63.89
2023-05-10T22:34:15.849Z,63.26
2023-05-10T22:36:42.366Z,63.53
2023-05-10T22:39:08.729Z,63.61
2023-05-10T22:41:35.181Z,63.72
2023-05-10T22:44:02.223Z,63.59
2023-05-10T22:46:29.639Z,63.18
2023-05-10T22:48:56.576Z,63.90
2023-05-10T22:51:23.258Z,63.91
2023-05-10T22:53:49.961Z,64.15
2023-05-10T22:56:16.594Z,63.82
2023-05-10T22:58:43.140Z,64.22
2023-05-10T23:01:09.557Z,64.04
2023-05-10T23:03:36.057Z,64.14
2023-05-10T23:06:02.477Z,64.05
2023-05-10T23:08:29.153Z,64.17
2023-05-10T23:10:56.025Z,64.18
2023-05-10T23:13:22.683Z,64.00
2023-05-10T23:15:49.192Z,64.41
2023-05-10T23:18:15.700Z,64.68
2023-05-10T23:20:42.879Z,64.69
2023-05-10T23:23:10.204Z,65.06
2023-05-10T23:25:37.578Z,64.84
2023-05-10T23:28:04.609Z,64.89
2023-05-10T23:30:31.726Z,65.02
2023-05-10T23:32:58.491Z,65.02
2023-05-10T23:35:25.016Z,64.61
2023-05-10T23:37:51.429Z,65.03
2023-05-10T23:40:18.088Z,64.95
2023-05-10T23:42:44.794Z,64.44
2023-05-10T23:45:11.538Z,64.53
2023-05-10T23:47:38.322Z,64.02
2023-05-10T23:50:05.676Z,64.39
2023-05-10T23:52:32.144Z,64.23
2023-05-10T23:54:58.634Z,64.11
2023-05-10T23:57:25.239Z,64.28
2023-05-10T23:59:51.758Z,64.35
